sensor_id;sensor_type;location;lat;lon;timestamp;pressure;altitude;pressure_sealevel;temperature;humidity
6347;BME280;3206;42.666;23.600;2023-09-19T09:29:44;95452.50;;;28.24;65.40
6347;BME280;3206;42.666;23.600;2023-09-19T09:32:23;95451.44;;;29.50;60.08
6347;BME280;3206;42.666;23.600;2023-09-19T09:34:52;95442.03;;;30.17;58.63
6347;BME280;3206;42.666;23.600;2023-09-19T09:37:19;95439.56;;;31.59;55.24
6347;BME280;3206;42.666;23.600;2023-09-19T09:39:51;95433.34;;;32.38;52.97
6347;BME280;3206;42.666;23.600;2023-09-19T09:42:35;95435.81;;;32.74;51.40
6347;BME280;3206;42.666;23.600;2023-09-19T09:45:16;95432.34;;;33.95;49.07
6347;BME280;3206;42.666;23.600;2023-09-19T09:47:44;95426.63;;;34.58;47.66
6347;BME280;3206;42.666;23.600;2023-09-19T09:50:25;95430.59;;;34.32;46.26
6347;BME280;3206;42.666;23.600;2023-09-19T09:52:55;95420.03;;;35.52;45.53
6347;BME280;3206;42.666;23.600;2023-09-19T09:55:28;95423.22;;;36.01;43.91
6347;BME280;3206;42.666;23.600;2023-09-19T09:58:16;95419.94;;;36.08;42.63
6347;BME280;3206;42.666;23.600;2023-09-19T10:00:53;95416.53;;;35.57;43.53
6347;BME280;3206;42.666;23.600;2023-09-19T10:03:31;95413.19;;;34.97;44.25
6347;BME280;3206;42.666;23.600;2023-09-19T10:06:00;95419.19;;;32.36;48.01
6347;BME280;3206;42.666;23.600;2023-09-19T10:08:27;95413.06;;;31.85;49.84
6347;BME280;3206;42.666;23.600;2023-09-19T10:10:56;95410.56;;;32.20;50.40
6347;BME280;3206;42.666;23.600;2023-09-19T10:13:31;95414.81;;;29.80;53.03
6347;BME280;3206;42.666;23.600;2023-09-19T10:16:06;95406.66;;;30.07;54.78
6347;BME280;3206;42.666;23.600;2023-09-19T10:18:36;95403.78;;;30.64;53.79
6347;BME280;3206;42.666;23.600;2023-09-19T10:21:04;95391.03;;;30.13;54.15
6347;BME280;3206;42.666;23.600;2023-09-19T10:23:33;95404.13;;;30.00;54.25
6347;BME280;3206;42.666;23.600;2023-09-19T10:26:02;95405.06;;;29.48;55.56
6347;BME280;3206;42.666;23.600;2023-09-19T10:28:30;95395.78;;;28.51;58.24
6347;BME280;3206;42.666;23.600;2023-09-19T10:31:00;95385.94;;;28.41;60.82
6347;BME280;3206;42.666;23.600;2023-09-19T10:33:35;95384.03;;;29.33;60.36
6347;BME280;3206;42.666;23.600;2023-09-19T10:36:04;95388.84;;;31.80;53.58
6347;BME280;3206;42.666;23.600;2023-09-19T10:38:32;95390.03;;;32.73;51.27
6347;BME280;3206;42.666;23.600;2023-09-19T10:41:01;95386.41;;;32.44;50.19
6347;BME280;3206;42.666;23.600;2023-09-19T10:43:31;95381.91;;;31.85;51.36
6347;BME280;3206;42.666;23.600;2023-09-19T10:46:01;95385.50;;;30.22;53.78
6347;BME280;3206;42.666;23.600;2023-09-19T10:48:30;95375.00;;;31.07;53.57
6347;BME280;3206;42.666;23.600;2023-09-19T10:51:02;95374.53;;;31.49;53.61
6347;BME280;3206;42.666;23.600;2023-09-19T10:53:41;95365.47;;;31.26;52.19
6347;BME280;3206;42.666;23.600;2023-09-19T10:56:09;95361.03;;;31.84;52.52
6347;BME280;3206;42.666;23.600;2023-09-19T10:58:43;95348.91;;;32.43;50.47
6347;BME280;3206;42.666;23.600;2023-09-19T11:01:11;95360.88;;;32.63;49.34
6347;BME280;3206;42.666;23.600;2023-09-19T11:03:42;95362.94;;;31.36;51.62
6347;BME280;3206;42.666;23.600;2023-09-19T11:06:12;95364.06;;;31.53;51.81
6347;BME280;3206;42.666;23.600;2023-09-19T11:08:56;95354.47;;;31.08;52.41
6347;BME280;3206;42.666;23.600;2023-09-19T11:11:44;95361.28;;;30.80;53.34
6347;BME280;3206;42.666;23.600;2023-09-19T11:18:52;95358.03;;;29.25;55.43
6347;BME280;3206;42.666;23.600;2023-09-19T11:24:32;95352.09;;;28.96;57.88
6347;BME280;3206;42.666;23.600;2023-09-19T11:27:10;95353.00;;;28.93;58.40
6347;BME280;3206;42.666;23.600;2023-09-19T11:29:39;95348.50;;;29.17;57.85
6347;BME280;3206;42.666;23.600;2023-09-19T11:32:06;95322.34;;;29.04;57.16
6347;BME280;3206;42.666;23.600;2023-09-19T11:34:54;95340.06;;;29.12;56.75
6347;BME280;3206;42.666;23.600;2023-09-19T11:38:00;95336.09;;;29.52;57.25
6347;BME280;3206;42.666;23.600;2023-09-19T11:40:28;95320.25;;;29.74;55.44
6347;BME280;3206;42.666;23.600;2023-09-19T11:42:56;95317.03;;;29.75;55.53
6347;BME280;3206;42.666;23.600;2023-09-19T11:48:27;95312.28;;;30.39;54.48
6347;BME280;3206;42.666;23.600;2023-09-19T11:50:56;95309.50;;;30.66;53.52
6347;BME280;3206;42.666;23.600;2023-09-19T11:53:31;95311.25;;;31.37;51.38
6347;BME280;3206;42.666;23.600;2023-09-19T11:56:01;95305.59;;;32.25;50.66
6347;BME280;3206;42.666;23.600;2023-09-19T11:58:29;95307.81;;;33.23;48.31
6347;BME280;3206;42.666;23.600;2023-09-19T12:00:57;95300.41;;;32.85;48.24
6347;BME280;3206;42.666;23.600;2023-09-19T12:03:29;95294.16;;;32.32;49.82
6347;BME280;3206;42.666;23.600;2023-09-19T12:05:59;95287.97;;;31.99;50.28
6347;BME280;3206;42.666;23.600;2023-09-19T12:08:28;95281.38;;;30.35;53.05
6347;BME280;3206;42.666;23.600;2023-09-19T12:10:55;95274.47;;;30.48;53.06
6347;BME280;3206;42.666;23.600;2023-09-19T12:13:23;95272.38;;;30.16;53.75
6347;BME280;3206;42.666;23.600;2023-09-19T12:15:51;95278.03;;;29.77;54.50
6347;BME280;3206;42.666;23.600;2023-09-19T12:18:27;95274.63;;;29.73;55.40
6347;BME280;3206;42.666;23.600;2023-09-19T12:20:55;95277.69;;;30.02;55.21
6347;BME280;3206;42.666;23.600;2023-09-19T12:23:24;95281.03;;;30.60;53.38
6347;BME280;3206;42.666;23.600;2023-09-19T12:25:52;95273.22;;;30.49;53.57
6347;BME280;3206;42.666;23.600;2023-09-19T12:28:22;95269.28;;;31.24;52.85
6347;BME280;3206;42.666;23.600;2023-09-19T12:30:50;95270.81;;;32.77;49.33
6347;BME280;3206;42.666;23.600;2023-09-19T12:33:18;95267.50;;;33.56;48.41
6347;BME280;3206;42.666;23.600;2023-09-19T12:35:47;95266.81;;;32.92;48.21
6347;BME280;3206;42.666;23.600;2023-09-19T12:38:24;95264.31;;;32.94;49.12
6347;BME280;3206;42.666;23.600;2023-09-19T12:40:54;95266.38;;;33.14;49.52
6347;BME280;3206;42.666;23.600;2023-09-19T12:43:22;95251.75;;;34.07;47.67
6347;BME280;3206;42.666;23.600;2023-09-19T12:45:49;95247.25;;;35.17;45.63
6347;BME280;3206;42.666;23.600;2023-09-19T12:48:20;95246.03;;;36.40;43.76
6347;BME280;3206;42.666;23.600;2023-09-19T12:51:02;95246.31;;;37.58;40.80
6347;BME280;3206;42.666;23.600;2023-09-19T12:53:35;95249.63;;;38.94;39.52
6347;BME280;3206;42.666;23.600;2023-09-19T12:56:06;95249.28;;;39.62;38.34
6347;BME280;3206;42.666;23.600;2023-09-19T12:58:37;95243.69;;;39.62;36.63
6347;BME280;3206;42.666;23.600;2023-09-19T13:01:14;95244.03;;;39.53;37.45
6347;BME280;3206;42.666;23.600;2023-09-19T13:03:41;95239.94;;;38.25;37.77
6347;BME280;3206;42.666;23.600;2023-09-19T13:06:08;95238.78;;;37.03;39.01
6347;BME280;3206;42.666;23.600;2023-09-19T13:08:38;95240.53;;;35.76;40.11
6347;BME280;3206;42.666;23.600;2023-09-19T13:11:10;95229.75;;;34.75;42.10
6347;BME280;3206;42.666;23.600;2023-09-19T13:13:40;95232.66;;;34.91;42.04
6347;BME280;3206;42.666;23.600;2023-09-19T13:16:07;95229.38;;;34.93;42.87
6347;BME280;3206;42.666;23.600;2023-09-19T13:18:48;95231.13;;;37.31;39.74
6347;BME280;3206;42.666;23.600;2023-09-19T13:21:17;95234.13;;;37.44;39.15
6347;BME280;3206;42.666;23.600;2023-09-19T13:23:52;95216.53;;;38.39;38.61
6347;BME280;3206;42.666;23.600;2023-09-19T13:26:19;95219.97;;;37.31;38.80
6347;BME280;3206;42.666;23.600;2023-09-19T13:28:48;95222.78;;;37.20;39.23
6347;BME280;3206;42.666;23.600;2023-09-19T13:31:15;95207.38;;;38.38;37.98
6347;BME280;3206;42.666;23.600;2023-09-19T13:33:45;95211.72;;;38.69;36.99
6347;BME280;3206;42.666;23.600;2023-09-19T13:36:12;95209.63;;;38.75;36.62
6347;BME280;3206;42.666;23.600;2023-09-19T13:38:39;95195.78;;;39.23;36.47
6347;BME280;3206;42.666;23.600;2023-09-19T13:41:09;95207.81;;;39.84;35.29
6347;BME280;3206;42.666;23.600;2023-09-19T13:43:36;95216.25;;;37.91;36.66
6347;BME280;3206;42.666;23.600;2023-09-19T13:46:04;95208.38;;;36.78;38.76
6347;BME280;3206;42.666;23.600;2023-09-19T13:48:33;95210.81;;;37.47;38.38
6347;BME280;3206;42.666;23.600;2023-09-19T13:51:01;95207.47;;;38.22;37.01
6347;BME280;3206;42.666;23.600;2023-09-19T13:53:28;95203.03;;;38.78;36.12
6347;BME280;3206;42.666;23.600;2023-09-19T13:55:55;95191.16;;;37.85;37.32
6347;BME280;3206;42.666;23.600;2023-09-19T13:58:23;95188.69;;;38.92;35.97
6347;BME280;3206;42.666;23.600;2023-09-19T14:00:50;95193.16;;;40.15;34.64
6347;BME280;3206;42.666;23.600;2023-09-19T14:03:20;95201.19;;;41.05;33.81
6347;BME280;3206;42.666;23.600;2023-09-19T14:05:47;95183.81;;;40.62;33.68
6347;BME280;3206;42.666;23.600;2023-09-19T14:08:14;95190.66;;;40.11;33.80
6347;BME280;3206;42.666;23.600;2023-09-19T14:10:40;95193.50;;;39.88;34.33
6347;BME280;3206;42.666;23.600;2023-09-19T14:13:07;95194.03;;;39.20;34.65
6347;BME280;3206;42.666;23.600;2023-09-19T14:15:37;95195.69;;;39.94;34.50
6347;BME280;3206;42.666;23.600;2023-09-19T14:18:04;95187.78;;;38.44;34.98
6347;BME280;3206;42.666;23.600;2023-09-19T14:20:31;95192.22;;;38.23;35.55
6347;BME280;3206;42.666;23.600;2023-09-19T14:22:57;95195.34;;;38.14;35.85
6347;BME280;3206;42.666;23.600;2023-09-19T14:25:25;95196.72;;;36.79;37.21
6347;BME280;3206;42.666;23.600;2023-09-19T14:27:52;95190.72;;;35.67;38.86
6347;BME280;3206;42.666;23.600;2023-09-19T14:30:18;95192.91;;;35.53;39.56
6347;BME280;3206;42.666;23.600;2023-09-19T14:32:46;95187.41;;;35.69;39.80
6347;BME280;3206;42.666;23.600;2023-09-19T14:35:13;95188.09;;;35.53;38.70
6347;BME280;3206;42.666;23.600;2023-09-19T14:37:40;95185.22;;;35.95;38.90
6347;BME280;3206;42.666;23.600;2023-09-19T14:40:08;95187.50;;;35.38;39.39
6347;BME280;3206;42.666;23.600;2023-09-19T14:42:36;95170.09;;;34.96;40.00
6347;BME280;3206;42.666;23.600;2023-09-19T14:45:04;95171.31;;;35.31;40.12
6347;BME280;3206;42.666;23.600;2023-09-19T14:47:31;95173.31;;;34.27;41.19
6347;BME280;3206;42.666;23.600;2023-09-19T14:50:00;95163.53;;;34.06;41.55
6347;BME280;3206;42.666;23.600;2023-09-19T14:52:27;95163.63;;;33.26;42.70
6347;BME280;3206;42.666;23.600;2023-09-19T14:54:54;95178.63;;;32.85;43.39
6347;BME280;3206;42.666;23.600;2023-09-19T14:57:21;95181.50;;;32.62;43.92
6347;BME280;3206;42.666;23.600;2023-09-19T14:59:49;95171.25;;;32.04;45.59
6347;BME280;3206;42.666;23.600;2023-09-19T15:02:16;95176.91;;;31.86;45.44
6347;BME280;3206;42.666;23.600;2023-09-19T15:04:43;95177.09;;;31.68;45.67
6347;BME280;3206;42.666;23.600;2023-09-19T15:07:14;95169.91;;;31.24;46.31
6347;BME280;3206;42.666;23.600;2023-09-19T15:09:41;95171.25;;;31.29;46.35
6347;BME280;3206;42.666;23.600;2023-09-19T15:12:09;95173.81;;;31.09;47.09
6347;BME280;3206;42.666;23.600;2023-09-19T15:14:35;95168.44;;;30.91;46.87
6347;BME280;3206;42.666;23.600;2023-09-19T15:17:02;95165.28;;;30.33;48.96
6347;BME280;3206;42.666;23.600;2023-09-19T15:19:30;95164.09;;;30.25;49.57
6347;BME280;3206;42.666;23.600;2023-09-19T15:21:57;95160.72;;;30.21;49.49
6347;BME280;3206;42.666;23.600;2023-09-19T15:24:25;95165.75;;;30.31;49.76
6347;BME280;3206;42.666;23.600;2023-09-19T15:26:53;95157.59;;;30.37;49.50
6347;BME280;3206;42.666;23.600;2023-09-19T15:29:20;95162.22;;;30.40;49.94
6347;BME280;3206;42.666;23.600;2023-09-19T15:31:48;95159.19;;;30.29;50.32
6347;BME280;3206;42.666;23.600;2023-09-19T15:34:14;95152.97;;;30.01;51.49
6347;BME280;3206;42.666;23.600;2023-09-19T15:36:41;95153.19;;;29.62;52.95
6347;BME280;3206;42.666;23.600;2023-09-19T15:39:09;95154.69;;;29.45;53.83
6347;BME280;3206;42.666;23.600;2023-09-19T15:41:38;95150.41;;;29.35;53.96
6347;BME280;3206;42.666;23.600;2023-09-19T15:44:11;95162.19;;;29.18;55.41
6347;BME280;3206;42.666;23.600;2023-09-19T15:46:38;95159.84;;;28.98;55.86
6347;BME280;3206;42.666;23.600;2023-09-19T15:49:06;95169.69;;;28.69;57.41
6347;BME280;3206;42.666;23.600;2023-09-19T15:51:33;95167.78;;;28.48;58.41
6347;BME280;3206;42.666;23.600;2023-09-19T15:54:01;95175.75;;;28.24;59.60
6347;BME280;3206;42.666;23.600;2023-09-19T15:56:33;95176.63;;;28.12;60.97
6347;BME280;3206;42.666;23.600;2023-09-19T15:59:02;95174.22;;;27.93;62.56
6347;BME280;3206;42.666;23.600;2023-09-19T16:01:30;95182.09;;;27.69;65.21
6347;BME280;3206;42.666;23.600;2023-09-19T16:03:56;95178.78;;;27.53;67.19
6347;BME280;3206;42.666;23.600;2023-09-19T16:06:24;95176.03;;;27.31;69.84
6347;BME280;3206;42.666;23.600;2023-09-19T16:08:53;95182.56;;;27.13;73.60
6347;BME280;3206;42.666;23.600;2023-09-19T16:11:22;95184.34;;;26.94;75.61
6347;BME280;3206;42.666;23.600;2023-09-19T16:13:49;95188.19;;;26.84;77.61
6347;BME280;3206;42.666;23.600;2023-09-19T16:16:18;95184.16;;;26.64;80.08
6347;BME280;3206;42.666;23.600;2023-09-19T16:18:48;95179.88;;;26.38;84.05
6347;BME280;3206;42.666;23.600;2023-09-19T16:21:16;95186.56;;;26.12;88.40
6347;BME280;3206;42.666;23.600;2023-09-19T16:23:45;95189.84;;;25.78;95.14
6347;BME280;3206;42.666;23.600;2023-09-19T16:26:12;95174.13;;;25.54;94.00
6347;BME280;3206;42.666;23.600;2023-09-19T16:28:39;95187.47;;;25.52;97.03
6347;BME280;3206;42.666;23.600;2023-09-19T16:31:08;95191.41;;;25.22;97.88
6347;BME280;3206;42.666;23.600;2023-09-19T16:33:37;95191.75;;;25.08;99.71
6347;BME280;3206;42.666;23.600;2023-09-19T16:36:07;95188.09;;;24.99;100.00
6347;BME280;3206;42.666;23.600;2023-09-19T16:38:34;95190.13;;;24.79;100.00
6347;BME280;3206;42.666;23.600;2023-09-19T16:41:01;95203.03;;;24.63;100.00
6347;BME280;3206;42.666;23.600;2023-09-19T16:43:29;95212.34;;;24.65;100.00
6347;BME280;3206;42.666;23.600;2023-09-19T16:45:58;95219.63;;;24.56;100.00
6347;BME280;3206;42.666;23.600;2023-09-19T16:48:26;95216.59;;;24.50;100.00
6347;BME280;3206;42.666;23.600;2023-09-19T16:50:59;95219.06;;;24.45;100.00
6347;BME280;3206;42.666;23.600;2023-09-19T16:53:27;95216.56;;;24.34;100.00
6347;BME280;3206;42.666;23.600;2023-09-19T16:55:54;95226.19;;;24.23;100.00
6347;BME280;3206;42.666;23.600;2023-09-19T16:58:22;95229.13;;;24.12;100.00
6347;BME280;3206;42.666;23.600;2023-09-19T17:00:49;95224.06;;;23.95;100.00
6347;BME280;3206;42.666;23.600;2023-09-19T17:03:15;95236.66;;;23.89;100.00
6347;BME280;3206;42.666;23.600;2023-09-19T17:05:42;95229.81;;;23.77;100.00
6347;BME280;3206;42.666;23.600;2023-09-19T17:08:11;95233.47;;;23.71;100.00
6347;BME280;3206;42.666;23.600;2023-09-19T17:10:37;95213.66;;;23.47;100.00
6347;BME280;3206;42.666;23.600;2023-09-19T17:13:08;95235.28;;;23.38;100.00
6347;BME280;3206;42.666;23.600;2023-09-19T17:15:36;95228.41;;;23.30;100.00
6347;BME280;3206;42.666;23.600;2023-09-19T17:18:03;95239.72;;;23.29;100.00
6347;BME280;3206;42.666;23.600;2023-09-19T17:20:30;95240.28;;;23.20;100.00
6347;BME280;3206;42.666;23.600;2023-09-19T17:22:57;95234.94;;;23.13;100.00
6347;BME280;3206;42.666;23.600;2023-09-19T17:25:26;95243.16;;;23.10;100.00
6347;BME280;3206;42.666;23.600;2023-09-19T17:27:56;95241.44;;;22.97;100.00
6347;BME280;3206;42.666;23.600;2023-09-19T17:30:23;95243.94;;;22.88;100.00
6347;BME280;3206;42.666;23.600;2023-09-19T17:32:53;95237.13;;;22.76;100.00
6347;BME280;3206;42.666;23.600;2023-09-19T17:35:20;95236.50;;;22.65;100.00
6347;BME280;3206;42.666;23.600;2023-09-19T17:37:47;95239.44;;;22.51;100.00
6347;BME280;3206;42.666;23.600;2023-09-19T17:40:13;95240.63;;;22.50;100.00
6347;BME280;3206;42.666;23.600;2023-09-19T17:42:42;95234.50;;;22.43;100.00
6347;BME280;3206;42.666;23.600;2023-09-19T17:45:09;95243.13;;;22.38;100.00
6347;BME280;3206;42.666;23.600;2023-09-19T17:47:40;95247.94;;;22.27;100.00
6347;BME280;3206;42.666;23.600;2023-09-19T17:50:07;95249.94;;;22.23;100.00
6347;BME280;3206;42.666;23.600;2023-09-19T17:52:38;95255.84;;;22.18;100.00
6347;BME280;3206;42.666;23.600;2023-09-19T17:55:06;95267.50;;;22.18;100.00
6347;BME280;3206;42.666;23.600;2023-09-19T17:57:33;95269.44;;;21.88;100.00
6347;BME280;3206;42.666;23.600;2023-09-19T18:00:01;95264.56;;;22.06;100.00
6347;BME280;3206;42.666;23.600;2023-09-19T18:02:30;95269.28;;;22.02;100.00
6347;BME280;3206;42.666;23.600;2023-09-19T18:04:58;95271.72;;;21.93;100.00
6347;BME280;3206;42.666;23.600;2023-09-19T18:07:25;95277.19;;;21.89;100.00
6347;BME280;3206;42.666;23.600;2023-09-19T18:09:51;95277.66;;;21.81;100.00
6347;BME280;3206;42.666;23.600;2023-09-19T18:12:18;95282.53;;;21.63;100.00
6347;BME280;3206;42.666;23.600;2023-09-19T18:14:44;95277.47;;;21.65;100.00
6347;BME280;3206;42.666;23.600;2023-09-19T18:17:12;95280.56;;;21.67;100.00
6347;BME280;3206;42.666;23.600;2023-09-19T18:19:39;95279.81;;;21.63;100.00
6347;BME280;3206;42.666;23.600;2023-09-19T18:22:07;95292.38;;;21.50;100.00
6347;BME280;3206;42.666;23.600;2023-09-19T18:24:36;95295.53;;;21.41;100.00
6347;BME280;3206;42.666;23.600;2023-09-19T18:27:04;95300.31;;;21.34;100.00
6347;BME280;3206;42.666;23.600;2023-09-19T18:29:31;95305.03;;;21.26;100.00
6347;BME280;3206;42.666;23.600;2023-09-19T18:31:58;95305.41;;;21.25;100.00
6347;BME280;3206;42.666;23.600;2023-09-19T18:34:26;95311.66;;;21.25;100.00
6347;BME280;3206;42.666;23.600;2023-09-19T18:36:53;95305.97;;;21.06;100.00
6347;BME280;3206;42.666;23.600;2023-09-19T18:39:23;95308.34;;;21.04;100.00
6347;BME280;3206;42.666;23.600;2023-09-19T18:41:50;95312.25;;;21.00;100.00
6347;BME280;3206;42.666;23.600;2023-09-19T18:44:17;95303.06;;;20.80;100.00
6347;BME280;3206;42.666;23.600;2023-09-19T18:46:44;95301.59;;;20.68;100.00
6347;BME280;3206;42.666;23.600;2023-09-19T18:49:13;95300.47;;;20.62;100.00
6347;BME280;3206;42.666;23.600;2023-09-19T18:51:44;95304.75;;;20.60;100.00
6347;BME280;3206;42.666;23.600;2023-09-19T18:54:11;95309.78;;;20.61;100.00
6347;BME280;3206;42.666;23.600;2023-09-19T18:56:39;95320.63;;;20.61;100.00
6347;BME280;3206;42.666;23.600;2023-09-19T18:59:06;95319.44;;;20.69;100.00
6347;BME280;3206;42.666;23.600;2023-09-19T19:01:35;95322.88;;;20.73;100.00
6347;BME280;3206;42.666;23.600;2023-09-19T19:04:02;95323.28;;;20.72;100.00
6347;BME280;3206;42.666;23.600;2023-09-19T19:06:28;95326.78;;;20.72;100.00
6347;BME280;3206;42.666;23.600;2023-09-19T19:08:58;95326.78;;;20.69;100.00
6347;BME280;3206;42.666;23.600;2023-09-19T19:11:25;95328.75;;;20.65;100.00
6347;BME280;3206;42.666;23.600;2023-09-19T19:13:55;95321.38;;;20.65;100.00
6347;BME280;3206;42.666;23.600;2023-09-19T19:16:22;95327.63;;;20.59;100.00
6347;BME280;3206;42.666;23.600;2023-09-19T19:18:52;95324.22;;;20.48;100.00
6347;BME280;3206;42.666;23.600;2023-09-19T19:21:19;95324.22;;;20.41;100.00
6347;BME280;3206;42.666;23.600;2023-09-19T19:23:46;95326.19;;;20.40;100.00
6347;BME280;3206;42.666;23.600;2023-09-19T19:26:14;95322.63;;;20.50;100.00
6347;BME280;3206;42.666;23.600;2023-09-19T19:28:42;95317.69;;;20.38;100.00
6347;BME280;3206;42.666;23.600;2023-09-19T19:31:11;95306.78;;;20.42;100.00
6347;BME280;3206;42.666;23.600;2023-09-19T19:33:38;95309.94;;;20.33;100.00
6347;BME280;3206;42.666;23.600;2023-09-19T19:36:05;95308.81;;;20.27;100.00
6347;BME280;3206;42.666;23.600;2023-09-19T19:38:32;95314.66;;;20.22;100.00
6347;BME280;3206;42.666;23.600;2023-09-19T19:40:59;95317.41;;;20.15;100.00
6347;BME280;3206;42.666;23.600;2023-09-19T19:43:28;95319.75;;;20.10;100.00
6347;BME280;3206;42.666;23.600;2023-09-19T19:45:55;95322.50;;;20.03;100.00
6347;BME280;3206;42.666;23.600;2023-09-19T19:48:22;95330.63;;;19.92;100.00
6347;BME280;3206;42.666;23.600;2023-09-19T19:50:49;95339.16;;;19.94;100.00
6347;BME280;3206;42.666;23.600;2023-09-19T19:53:15;95338.41;;;19.94;100.00
6347;BME280;3206;42.666;23.600;2023-09-19T19:55:43;95342.25;;;19.96;100.00
6347;BME280;3206;42.666;23.600;2023-09-19T19:58:11;95340.78;;;19.74;100.00
6347;BME280;3206;42.666;23.600;2023-09-19T20:00:41;95346.56;;;19.73;100.00
6347;BME280;3206;42.666;23.600;2023-09-19T20:03:09;95359.34;;;19.79;100.00
6347;BME280;3206;42.666;23.600;2023-09-19T20:05:36;95361.66;;;19.77;100.00
6347;BME280;3206;42.666;23.600;2023-09-19T20:08:05;95361.63;;;19.91;100.00
6347;BME280;3206;42.666;23.600;2023-09-19T20:10:31;95365.50;;;19.90;100.00
6347;BME280;3206;42.666;23.600;2023-09-19T20:13:00;95357.00;;;20.02;100.00
6347;BME280;3206;42.666;23.600;2023-09-19T20:15:31;95356.56;;;20.07;100.00
6347;BME280;3206;42.666;23.600;2023-09-19T20:18:00;95359.25;;;20.14;100.00
6347;BME280;3206;42.666;23.600;2023-09-19T20:20:27;95355.38;;;20.15;100.00
6347;BME280;3206;42.666;23.600;2023-09-19T20:22:54;95348.38;;;20.21;100.00
6347;BME280;3206;42.666;23.600;2023-09-19T20:25:21;95354.94;;;20.27;100.00
6347;BME280;3206;42.666;23.600;2023-09-19T20:27:49;95359.94;;;20.32;100.00
6347;BME280;3206;42.666;23.600;2023-09-19T20:30:15;95374.66;;;20.35;100.00
6347;BME280;3206;42.666;23.600;2023-09-19T20:32:42;95391.69;;;20.46;100.00
6347;BME280;3206;42.666;23.600;2023-09-19T20:35:11;95415.25;;;20.59;100.00
6347;BME280;3206;42.666;23.600;2023-09-19T20:37:38;95450.53;;;20.59;100.00
6347;BME280;3206;42.666;23.600;2023-09-19T20:40:06;95461.34;;;20.66;100.00
6347;BME280;3206;42.666;23.600;2023-09-19T20:42:35;95476.88;;;20.62;100.00
6347;BME280;3206;42.666;23.600;2023-09-19T20:45:02;95482.31;;;20.69;100.00
6347;BME280;3206;42.666;23.600;2023-09-19T20:47:29;95499.38;;;20.63;100.00
6347;BME280;3206;42.666;23.600;2023-09-19T20:49:55;95521.97;;;20.35;100.00
6347;BME280;3206;42.666;23.600;2023-09-19T20:52:23;95532.81;;;20.28;100.00
6347;BME280;3206;42.666;23.600;2023-09-19T20:54:50;95533.22;;;20.27;100.00
6347;BME280;3206;42.666;23.600;2023-09-19T20:57:17;95541.34;;;20.37;100.00
6347;BME280;3206;42.666;23.600;2023-09-19T20:59:43;95561.09;;;20.34;100.00
6347;BME280;3206;42.666;23.600;2023-09-19T21:02:10;95570.81;;;20.35;100.00
6347;BME280;3206;42.666;23.600;2023-09-19T21:04:37;95582.41;;;19.76;100.00
6347;BME280;3206;42.666;23.600;2023-09-19T21:07:04;95605.50;;;19.21;100.00
6347;BME280;3206;42.666;23.600;2023-09-19T21:09:33;95630.13;;;18.99;100.00
6347;BME280;3206;42.666;23.600;2023-09-19T21:12:00;65057.09;;;-141.88;100.00
6347;BME280;3206;42.666;23.600;2023-09-19T21:14:27;65057.09;;;-141.88;100.00
6347;BME280;3206;42.666;23.600;2023-09-19T21:16:54;65057.09;;;-141.88;100.00
6347;BME280;3206;42.666;23.600;2023-09-19T21:19:20;65057.09;;;-141.88;100.00
6347;BME280;3206;42.666;23.600;2023-09-19T21:21:47;65057.09;;;-141.88;100.00
6347;BME280;3206;42.666;23.600;2023-09-19T21:24:14;65057.09;;;-141.88;100.00
6347;BME280;3206;42.666;23.600;2023-09-19T21:26:44;65057.09;;;-141.88;100.00
6347;BME280;3206;42.666;23.600;2023-09-19T21:29:11;65057.09;;;-141.88;100.00
6347;BME280;3206;42.666;23.600;2023-09-19T21:31:37;65057.09;;;-141.88;100.00
6347;BME280;3206;42.666;23.600;2023-09-19T21:34:05;65057.09;;;-141.88;100.00
6347;BME280;3206;42.666;23.600;2023-09-19T21:36:33;65057.09;;;-141.88;100.00
6347;BME280;3206;42.666;23.600;2023-09-19T21:38:59;65057.09;;;-141.88;100.00
6347;BME280;3206;42.666;23.600;2023-09-19T21:41:26;65057.09;;;-141.88;100.00
6347;BME280;3206;42.666;23.600;2023-09-19T21:43:54;65057.09;;;-141.88;100.00
6347;BME280;3206;42.666;23.600;2023-09-19T21:46:21;65057.09;;;-141.88;100.00
6347;BME280;3206;42.666;23.600;2023-09-19T21:48:51;65057.09;;;-141.88;100.00
6347;BME280;3206;42.666;23.600;2023-09-19T21:51:19;65057.09;;;-141.88;100.00
6347;BME280;3206;42.666;23.600;2023-09-19T21:53:46;65057.09;;;-141.88;100.00
6347;BME280;3206;42.666;23.600;2023-09-19T21:56:14;65057.09;;;-141.88;100.00
6347;BME280;3206;42.666;23.600;2023-09-19T21:58:43;65057.09;;;-141.88;100.00
6347;BME280;3206;42.666;23.600;2023-09-19T22:01:12;65057.09;;;-141.88;100.00
6347;BME280;3206;42.666;23.600;2023-09-19T22:03:40;65057.09;;;-141.88;100.00
6347;BME280;3206;42.666;23.600;2023-09-19T22:06:07;65057.09;;;-141.88;100.00
6347;BME280;3206;42.666;23.600;2023-09-19T22:08:35;65057.09;;;-141.88;100.00
6347;BME280;3206;42.666;23.600;2023-09-19T22:11:04;65057.09;;;-141.88;100.00
6347;BME280;3206;42.666;23.600;2023-09-19T22:13:34;65057.09;;;-141.88;100.00
6347;BME280;3206;42.666;23.600;2023-09-19T22:16:01;65057.09;;;-141.88;100.00
6347;BME280;3206;42.666;23.600;2023-09-19T22:18:29;65057.09;;;-141.88;100.00
6347;BME280;3206;42.666;23.600;2023-09-19T22:20:57;65057.09;;;-141.88;100.00
6347;BME280;3206;42.666;23.600;2023-09-19T22:23:29;65057.09;;;-141.88;100.00
6347;BME280;3206;42.666;23.600;2023-09-19T22:25:58;65057.09;;;-141.88;100.00
6347;BME280;3206;42.666;23.600;2023-09-19T22:28:29;65057.09;;;-141.88;100.00
6347;BME280;3206;42.666;23.600;2023-09-19T22:30:56;65057.09;;;-141.88;100.00
6347;BME280;3206;42.666;23.600;2023-09-19T22:33:22;65057.09;;;-141.88;100.00
6347;BME280;3206;42.666;23.600;2023-09-19T22:35:51;65057.09;;;-141.88;100.00
6347;BME280;3206;42.666;23.600;2023-09-19T22:38:20;65057.09;;;-141.88;100.00
6347;BME280;3206;42.666;23.600;2023-09-19T22:40:47;65057.09;;;-141.88;100.00
6347;BME280;3206;42.666;23.600;2023-09-19T22:43:16;65057.09;;;-141.88;100.00
6347;BME280;3206;42.666;23.600;2023-09-19T22:45:45;65057.09;;;-141.88;100.00
6347;BME280;3206;42.666;23.600;2023-09-19T22:48:12;65057.09;;;-141.88;100.00
6347;BME280;3206;42.666;23.600;2023-09-19T22:50:40;65057.09;;;-141.88;100.00